Little Lake, CA (93542)

8:30 AM PDT on September 20, 2014 (GMT -0700)
FIVE MILE | Change Station
CLOSE
Current Station
Personal Weather Station
Location: Inyokern, CA
Elevation: 3900 ft
Nearby Weather Stations

Elev 3900 ft 35.87 °N, 117.92 °W | Updated 43 minutes ago

Clear
Clear
75.0 °F
Feels Like 77 °F
N
8.0
Wind Variable Wind from South

Today
High -- | Low -- °F
--% Chance of Precip.
Yesterday
High -- | Low -- °F
Precip. -- in
6:38 AM 6:51 PM
Waning Crescent, 12% visible
Pressure 29.91 in
Visibility 10.0 miles
Clouds Clear
Heat Index 77 °F
Dew Point 37 °F
Humidity 25%
Rainfall -999.00 in
Snow Depth 0 in , 1 in , 0 in
UV 1 out of 12
Pollen 7.10 out of 12
Air Quality Not available.
Flu Activity Not available.
METAR KNID 201456Z AUTO 20003KT 10SM CLR 21/05 A2996 RMK AO2 SLP127 T02110050 53014 $

More Conditions Fewer Conditions

Pressure 29.91 in
Visibility 10.0 miles
Clouds Clear
Heat Index 77 °F
Dew Point 37 °F
Humidity 25%
Rainfall -999.00 in
Snow Depth 0 in , 1 in , 0 in
UV 1 out of 12
Pollen 7.10 out of 12
Air Quality Not available.
Flu Activity Not available.
METAR KNID 201456Z AUTO 20003KT 10SM CLR 21/05 A2996 RMK AO2 SLP127 T02110050 53014 $

More Conditions Fewer Conditions

10-Day Weather Forecast

Almanac

Astronomy

Sep. 20, 2014 Rise Set
Actual Time 6:38 AM PDT 6:51 PM PDT
Civil Twilight 6:12 AM PDT 7:16 PM PDT
Nautical Twilight 5:42 AM PDT 7:46 PM PDT
Astronomical Twilight 5:12 AM PDT 8:17 PM PDT
Moon 3:26 AM PDT 4:53 PM PDT
Length of Visible Light 13h 04m
Length of Day
12h 13m
Tomorrow will be 2m 15s shorter.
Waning Crescent, 12% of the Moon is Illuminated
Today
Waning Crescent
Sep 24
New
Oct 1
First Quarter
Oct 8
Full
Oct 15
Last Quarter

Today's Extremes

State Highs State Lows

Community

WunderPhotos

Upload Photos

1,754,877 photos uploaded!

Nearby

Snow Depth

Station Depth Elevation
Ebbetts Pass 0 in 8700 ft
Leavitt Meadows 1 in 7200 ft
Heavenly Valley 0 in 8850 ft
Tahoe City Cross 0 in 6750 ft
Fallen Leaf 0 in 6300 ft

Earthquake Activity

City Distance Mag. Time & Date
Inyokern, California 8 miles 3.1 5:33 PM PDT
2014-09-19
Corcoran, California 97 miles 2.9 3:59 PM PDT
2014-09-18
Minimum magnitude displayed is 2.5.

Coastal Water Temperatures

Place Temperature
No Stations Reporting

Nearby Weather Stations